sensor_id;sensor_type;location;lat;lon;timestamp;P1;durP1;ratioP1;P2;durP2;ratioP2
18933;SDS011;9599;53.706;10.384;2022-09-17T00:01:19;16.87;;;2.73;;
18933;SDS011;9599;53.706;10.384;2022-09-17T00:03:49;20.27;;;3.17;;
18933;SDS011;9599;53.706;10.384;2022-09-17T00:06:19;19.07;;;3.30;;
18933;SDS011;9599;53.706;10.384;2022-09-17T00:08:47;16.70;;;2.93;;
18933;SDS011;9599;53.706;10.384;2022-09-17T00:11:16;20.27;;;3.00;;
18933;SDS011;9599;53.706;10.384;2022-09-17T00:13:47;21.53;;;3.17;;
18933;SDS011;9599;53.706;10.384;2022-09-17T00:16:22;18.33;;;3.03;;
18933;SDS011;9599;53.706;10.384;2022-09-17T00:18:52;15.87;;;2.57;;
18933;SDS011;9599;53.706;10.384;2022-09-17T00:21:20;21.57;;;3.50;;
18933;SDS011;9599;53.706;10.384;2022-09-17T00:23:52;21.43;;;3.17;;
18933;SDS011;9599;53.706;10.384;2022-09-17T00:26:21;19.23;;;3.00;;
18933;SDS011;9599;53.706;10.384;2022-09-17T00:28:51;19.10;;;3.00;;
18933;SDS011;9599;53.706;10.384;2022-09-17T00:31:20;22.27;;;3.40;;
18933;SDS011;9599;53.706;10.384;2022-09-17T00:33:49;20.07;;;3.27;;
18933;SDS011;9599;53.706;10.384;2022-09-17T00:36:18;19.13;;;3.07;;
18933;SDS011;9599;53.706;10.384;2022-09-17T00:38:47;18.83;;;2.90;;
18933;SDS011;9599;53.706;10.384;2022-09-17T00:41:16;19.53;;;3.33;;
18933;SDS011;9599;53.706;10.384;2022-09-17T00:43:44;20.47;;;3.07;;
18933;SDS011;9599;53.706;10.384;2022-09-17T00:46:19;22.93;;;3.30;;
18933;SDS011;9599;53.706;10.384;2022-09-17T00:48:51;17.30;;;3.20;;
18933;SDS011;9599;53.706;10.384;2022-09-17T00:51:22;20.97;;;3.53;;
18933;SDS011;9599;53.706;10.384;2022-09-17T00:53:53;17.67;;;3.00;;
18933;SDS011;9599;53.706;10.384;2022-09-17T00:56:22;15.90;;;2.83;;
18933;SDS011;9599;53.706;10.384;2022-09-17T00:58:52;23.43;;;2.93;;
18933;SDS011;9599;53.706;10.384;2022-09-17T01:01:23;16.73;;;3.13;;
18933;SDS011;9599;53.706;10.384;2022-09-17T01:03:51;22.00;;;3.47;;
18933;SDS011;9599;53.706;10.384;2022-09-17T01:06:20;14.63;;;3.00;;
18933;SDS011;9599;53.706;10.384;2022-09-17T01:09:01;13.33;;;3.00;;
18933;SDS011;9599;53.706;10.384;2022-09-17T01:11:52;20.60;;;3.60;;
18933;SDS011;9599;53.706;10.384;2022-09-17T01:14:39;20.67;;;3.00;;
18933;SDS011;9599;53.706;10.384;2022-09-17T01:17:18;20.77;;;3.10;;
18933;SDS011;9599;53.706;10.384;2022-09-17T01:20:06;17.97;;;2.93;;
18933;SDS011;9599;53.706;10.384;2022-09-17T01:22:58;16.57;;;3.07;;
18933;SDS011;9599;53.706;10.384;2022-09-17T01:25:46;15.10;;;2.83;;
18933;SDS011;9599;53.706;10.384;2022-09-17T01:28:28;17.67;;;3.27;;
18933;SDS011;9599;53.706;10.384;2022-09-17T01:31:10;22.37;;;3.17;;
18933;SDS011;9599;53.706;10.384;2022-09-17T01:34:02;24.97;;;2.87;;
18933;SDS011;9599;53.706;10.384;2022-09-17T01:36:41;20.17;;;3.17;;
18933;SDS011;9599;53.706;10.384;2022-09-17T01:39:17;20.03;;;2.93;;
18933;SDS011;9599;53.706;10.384;2022-09-17T01:41:56;16.70;;;2.57;;
18933;SDS011;9599;53.706;10.384;2022-09-17T01:44:33;17.13;;;2.60;;
18933;SDS011;9599;53.706;10.384;2022-09-17T01:47:08;16.40;;;2.80;;
18933;SDS011;9599;53.706;10.384;2022-09-17T01:49:46;17.73;;;2.83;;
18933;SDS011;9599;53.706;10.384;2022-09-17T01:52:17;21.63;;;3.07;;
18933;SDS011;9599;53.706;10.384;2022-09-17T01:54:46;15.37;;;2.70;;
18933;SDS011;9599;53.706;10.384;2022-09-17T01:57:17;14.00;;;2.70;;
18933;SDS011;9599;53.706;10.384;2022-09-17T01:59:53;12.00;;;2.50;;
18933;SDS011;9599;53.706;10.384;2022-09-17T02:02:28;14.07;;;2.83;;
18933;SDS011;9599;53.706;10.384;2022-09-17T02:05:02;24.60;;;3.27;;
18933;SDS011;9599;53.706;10.384;2022-09-17T02:07:32;20.10;;;3.07;;
18933;SDS011;9599;53.706;10.384;2022-09-17T02:10:06;14.13;;;2.63;;
18933;SDS011;9599;53.706;10.384;2022-09-17T02:12:37;9.43;;;2.30;;
18933;SDS011;9599;53.706;10.384;2022-09-17T02:15:10;17.67;;;2.87;;
18933;SDS011;9599;53.706;10.384;2022-09-17T02:17:45;15.00;;;2.67;;
18933;SDS011;9599;53.706;10.384;2022-09-17T02:20:16;11.07;;;2.13;;
18933;SDS011;9599;53.706;10.384;2022-09-17T02:22:49;15.17;;;2.30;;
18933;SDS011;9599;53.706;10.384;2022-09-17T02:25:23;17.67;;;2.57;;
18933;SDS011;9599;53.706;10.384;2022-09-17T02:27:57;13.00;;;2.47;;
18933;SDS011;9599;53.706;10.384;2022-09-17T02:30:29;13.10;;;2.73;;
18933;SDS011;9599;53.706;10.384;2022-09-17T02:32:59;19.27;;;2.73;;
18933;SDS011;9599;53.706;10.384;2022-09-17T02:35:29;16.50;;;2.43;;
18933;SDS011;9599;53.706;10.384;2022-09-17T02:37:57;15.93;;;2.60;;
18933;SDS011;9599;53.706;10.384;2022-09-17T02:40:26;13.07;;;2.77;;
18933;SDS011;9599;53.706;10.384;2022-09-17T02:42:59;14.10;;;2.77;;
18933;SDS011;9599;53.706;10.384;2022-09-17T02:45:36;15.73;;;2.30;;
18933;SDS011;9599;53.706;10.384;2022-09-17T02:48:33;12.60;;;2.47;;
18933;SDS011;9599;53.706;10.384;2022-09-17T02:51:16;15.00;;;2.90;;
18933;SDS011;9599;53.706;10.384;2022-09-17T02:53:53;13.53;;;2.57;;
18933;SDS011;9599;53.706;10.384;2022-09-17T02:56:29;15.33;;;2.53;;
18933;SDS011;9599;53.706;10.384;2022-09-17T02:59:08;11.70;;;2.30;;
18933;SDS011;9599;53.706;10.384;2022-09-17T03:01:45;16.37;;;2.30;;
18933;SDS011;9599;53.706;10.384;2022-09-17T03:04:19;13.10;;;2.00;;
18933;SDS011;9599;53.706;10.384;2022-09-17T03:06:50;11.83;;;2.43;;
18933;SDS011;9599;53.706;10.384;2022-09-17T03:09:19;14.00;;;2.33;;
18933;SDS011;9599;53.706;10.384;2022-09-17T03:11:46;11.83;;;2.30;;
18933;SDS011;9599;53.706;10.384;2022-09-17T03:14:14;12.27;;;2.40;;
18933;SDS011;9599;53.706;10.384;2022-09-17T03:16:42;14.83;;;2.43;;
18933;SDS011;9599;53.706;10.384;2022-09-17T03:19:10;12.63;;;2.07;;
18933;SDS011;9599;53.706;10.384;2022-09-17T03:21:39;6.87;;;1.93;;
18933;SDS011;9599;53.706;10.384;2022-09-17T03:24:07;9.90;;;1.90;;
18933;SDS011;9599;53.706;10.384;2022-09-17T03:26:36;10.50;;;2.10;;
18933;SDS011;9599;53.706;10.384;2022-09-17T03:29:04;12.70;;;2.27;;
18933;SDS011;9599;53.706;10.384;2022-09-17T03:31:32;12.43;;;2.40;;
18933;SDS011;9599;53.706;10.384;2022-09-17T03:34:00;18.50;;;2.50;;
18933;SDS011;9599;53.706;10.384;2022-09-17T03:36:28;17.70;;;2.53;;
18933;SDS011;9599;53.706;10.384;2022-09-17T03:38:57;12.53;;;2.13;;
18933;SDS011;9599;53.706;10.384;2022-09-17T03:41:25;12.37;;;2.20;;
18933;SDS011;9599;53.706;10.384;2022-09-17T03:43:53;9.97;;;1.80;;
18933;SDS011;9599;53.706;10.384;2022-09-17T03:46:21;13.63;;;2.23;;
18933;SDS011;9599;53.706;10.384;2022-09-17T03:48:49;13.47;;;2.37;;
18933;SDS011;9599;53.706;10.384;2022-09-17T03:51:17;9.87;;;1.90;;
18933;SDS011;9599;53.706;10.384;2022-09-17T03:53:44;16.00;;;2.13;;
18933;SDS011;9599;53.706;10.384;2022-09-17T03:56:13;14.20;;;1.90;;
18933;SDS011;9599;53.706;10.384;2022-09-17T03:58:43;10.90;;;1.80;;
18933;SDS011;9599;53.706;10.384;2022-09-17T04:01:10;12.00;;;2.27;;
18933;SDS011;9599;53.706;10.384;2022-09-17T04:03:38;15.60;;;2.33;;
18933;SDS011;9599;53.706;10.384;2022-09-17T04:06:07;16.60;;;2.47;;
18933;SDS011;9599;53.706;10.384;2022-09-17T04:08:34;12.13;;;2.13;;
18933;SDS011;9599;53.706;10.384;2022-09-17T04:11:02;15.77;;;2.73;;
18933;SDS011;9599;53.706;10.384;2022-09-17T04:13:31;12.50;;;2.20;;
18933;SDS011;9599;53.706;10.384;2022-09-17T04:15:59;13.67;;;2.17;;
18933;SDS011;9599;53.706;10.384;2022-09-17T04:18:28;13.53;;;2.40;;
18933;SDS011;9599;53.706;10.384;2022-09-17T04:20:56;14.57;;;2.23;;
18933;SDS011;9599;53.706;10.384;2022-09-17T04:23:23;16.57;;;2.20;;
18933;SDS011;9599;53.706;10.384;2022-09-17T04:25:51;13.47;;;2.23;;
18933;SDS011;9599;53.706;10.384;2022-09-17T04:28:19;12.23;;;2.40;;
18933;SDS011;9599;53.706;10.384;2022-09-17T04:30:48;12.27;;;2.00;;
18933;SDS011;9599;53.706;10.384;2022-09-17T04:33:16;15.43;;;2.63;;
18933;SDS011;9599;53.706;10.384;2022-09-17T04:35:44;14.40;;;2.33;;
18933;SDS011;9599;53.706;10.384;2022-09-17T04:38:12;15.10;;;2.00;;
18933;SDS011;9599;53.706;10.384;2022-09-17T04:40:45;13.00;;;2.13;;
18933;SDS011;9599;53.706;10.384;2022-09-17T04:43:13;10.60;;;2.30;;
18933;SDS011;9599;53.706;10.384;2022-09-17T04:45:43;15.43;;;2.47;;
18933;SDS011;9599;53.706;10.384;2022-09-17T04:48:13;11.97;;;2.03;;
18933;SDS011;9599;53.706;10.384;2022-09-17T04:50:41;12.60;;;2.20;;
18933;SDS011;9599;53.706;10.384;2022-09-17T04:53:09;15.93;;;2.57;;
18933;SDS011;9599;53.706;10.384;2022-09-17T04:55:37;14.87;;;2.63;;
18933;SDS011;9599;53.706;10.384;2022-09-17T04:58:05;14.13;;;2.40;;
18933;SDS011;9599;53.706;10.384;2022-09-17T05:00:33;12.73;;;2.27;;
18933;SDS011;9599;53.706;10.384;2022-09-17T05:03:01;10.90;;;2.07;;
18933;SDS011;9599;53.706;10.384;2022-09-17T05:05:30;14.30;;;2.40;;
18933;SDS011;9599;53.706;10.384;2022-09-17T05:07:58;12.03;;;2.33;;
18933;SDS011;9599;53.706;10.384;2022-09-17T05:10:26;11.83;;;2.23;;
18933;SDS011;9599;53.706;10.384;2022-09-17T05:12:54;8.33;;;2.07;;
18933;SDS011;9599;53.706;10.384;2022-09-17T05:15:23;12.13;;;1.90;;
18933;SDS011;9599;53.706;10.384;2022-09-17T05:17:52;16.67;;;2.20;;
18933;SDS011;9599;53.706;10.384;2022-09-17T05:20:20;10.90;;;1.90;;
18933;SDS011;9599;53.706;10.384;2022-09-17T05:22:50;14.80;;;2.70;;
18933;SDS011;9599;53.706;10.384;2022-09-17T05:25:19;11.70;;;2.30;;
18933;SDS011;9599;53.706;10.384;2022-09-17T05:27:49;11.30;;;2.00;;
18933;SDS011;9599;53.706;10.384;2022-09-17T05:30:17;13.20;;;2.40;;
18933;SDS011;9599;53.706;10.384;2022-09-17T05:32:45;10.90;;;2.10;;
18933;SDS011;9599;53.706;10.384;2022-09-17T05:35:14;10.77;;;2.17;;
18933;SDS011;9599;53.706;10.384;2022-09-17T05:37:42;9.13;;;2.00;;
18933;SDS011;9599;53.706;10.384;2022-09-17T05:40:11;17.73;;;2.30;;
18933;SDS011;9599;53.706;10.384;2022-09-17T05:42:39;11.73;;;2.37;;
18933;SDS011;9599;53.706;10.384;2022-09-17T05:45:07;12.37;;;2.37;;
18933;SDS011;9599;53.706;10.384;2022-09-17T05:47:35;13.37;;;2.40;;
18933;SDS011;9599;53.706;10.384;2022-09-17T05:50:03;10.70;;;1.93;;
18933;SDS011;9599;53.706;10.384;2022-09-17T05:52:31;15.53;;;2.43;;
18933;SDS011;9599;53.706;10.384;2022-09-17T05:54:59;12.87;;;2.23;;
18933;SDS011;9599;53.706;10.384;2022-09-17T05:57:28;13.23;;;2.37;;
18933;SDS011;9599;53.706;10.384;2022-09-17T05:59:56;10.87;;;2.13;;
18933;SDS011;9599;53.706;10.384;2022-09-17T06:02:24;15.67;;;2.17;;
18933;SDS011;9599;53.706;10.384;2022-09-17T06:04:52;12.37;;;2.20;;
18933;SDS011;9599;53.706;10.384;2022-09-17T06:07:20;14.20;;;2.73;;
18933;SDS011;9599;53.706;10.384;2022-09-17T06:09:48;10.87;;;2.80;;
18933;SDS011;9599;53.706;10.384;2022-09-17T06:12:15;13.50;;;2.40;;
18933;SDS011;9599;53.706;10.384;2022-09-17T06:14:45;14.17;;;2.30;;
18933;SDS011;9599;53.706;10.384;2022-09-17T06:17:12;10.80;;;2.50;;
18933;SDS011;9599;53.706;10.384;2022-09-17T06:19:46;15.60;;;2.70;;
18933;SDS011;9599;53.706;10.384;2022-09-17T06:22:16;10.17;;;2.87;;
18933;SDS011;9599;53.706;10.384;2022-09-17T06:24:44;12.37;;;2.23;;
18933;SDS011;9599;53.706;10.384;2022-09-17T06:27:12;11.30;;;2.57;;
18933;SDS011;9599;53.706;10.384;2022-09-17T06:29:40;13.40;;;2.30;;
18933;SDS011;9599;53.706;10.384;2022-09-17T06:32:09;13.10;;;2.47;;
18933;SDS011;9599;53.706;10.384;2022-09-17T06:34:38;9.47;;;2.20;;
18933;SDS011;9599;53.706;10.384;2022-09-17T06:37:06;11.80;;;2.20;;
18933;SDS011;9599;53.706;10.384;2022-09-17T06:39:34;14.27;;;2.23;;
18933;SDS011;9599;53.706;10.384;2022-09-17T06:42:01;11.63;;;3.00;;
18933;SDS011;9599;53.706;10.384;2022-09-17T06:44:30;13.43;;;3.03;;
18933;SDS011;9599;53.706;10.384;2022-09-17T06:46:58;11.37;;;3.13;;
18933;SDS011;9599;53.706;10.384;2022-09-17T06:49:27;9.47;;;2.20;;
18933;SDS011;9599;53.706;10.384;2022-09-17T06:51:56;10.70;;;2.10;;
18933;SDS011;9599;53.706;10.384;2022-09-17T06:54:24;12.17;;;2.50;;
18933;SDS011;9599;53.706;10.384;2022-09-17T06:56:51;7.77;;;1.80;;
18933;SDS011;9599;53.706;10.384;2022-09-17T06:59:19;8.03;;;1.90;;
18933;SDS011;9599;53.706;10.384;2022-09-17T07:01:47;9.93;;;2.23;;
18933;SDS011;9599;53.706;10.384;2022-09-17T07:04:15;13.27;;;1.87;;
18933;SDS011;9599;53.706;10.384;2022-09-17T07:06:45;10.17;;;1.87;;
18933;SDS011;9599;53.706;10.384;2022-09-17T07:09:13;7.90;;;2.13;;
18933;SDS011;9599;53.706;10.384;2022-09-17T07:11:43;9.67;;;1.90;;
18933;SDS011;9599;53.706;10.384;2022-09-17T07:14:11;7.53;;;1.70;;
18933;SDS011;9599;53.706;10.384;2022-09-17T07:16:38;7.40;;;1.80;;
18933;SDS011;9599;53.706;10.384;2022-09-17T07:19:06;8.20;;;1.77;;
18933;SDS011;9599;53.706;10.384;2022-09-17T07:21:34;5.63;;;1.73;;
18933;SDS011;9599;53.706;10.384;2022-09-17T07:24:03;5.87;;;1.20;;
18933;SDS011;9599;53.706;10.384;2022-09-17T07:26:31;7.83;;;1.80;;
18933;SDS011;9599;53.706;10.384;2022-09-17T07:28:59;8.53;;;1.80;;
18933;SDS011;9599;53.706;10.384;2022-09-17T07:31:27;5.57;;;1.20;;
18933;SDS011;9599;53.706;10.384;2022-09-17T07:33:55;6.10;;;1.13;;
18933;SDS011;9599;53.706;10.384;2022-09-17T07:36:22;9.30;;;1.40;;
18933;SDS011;9599;53.706;10.384;2022-09-17T07:38:50;5.10;;;1.17;;
18933;SDS011;9599;53.706;10.384;2022-09-17T07:41:19;6.43;;;1.23;;
18933;SDS011;9599;53.706;10.384;2022-09-17T07:43:47;5.60;;;1.20;;
18933;SDS011;9599;53.706;10.384;2022-09-17T07:46:18;3.37;;;1.20;;
18933;SDS011;9599;53.706;10.384;2022-09-17T07:48:47;4.50;;;1.07;;
18933;SDS011;9599;53.706;10.384;2022-09-17T07:51:17;5.13;;;1.27;;
18933;SDS011;9599;53.706;10.384;2022-09-17T07:53:49;4.30;;;1.00;;
18933;SDS011;9599;53.706;10.384;2022-09-17T07:56:17;4.40;;;0.93;;
18933;SDS011;9599;53.706;10.384;2022-09-17T07:58:47;3.00;;;1.10;;
18933;SDS011;9599;53.706;10.384;2022-09-17T08:01:14;4.23;;;0.93;;
18933;SDS011;9599;53.706;10.384;2022-09-17T08:03:46;3.07;;;0.70;;
18933;SDS011;9599;53.706;10.384;2022-09-17T08:06:16;2.43;;;0.60;;
18933;SDS011;9599;53.706;10.384;2022-09-17T08:08:46;3.40;;;1.00;;
18933;SDS011;9599;53.706;10.384;2022-09-17T08:11:15;3.93;;;0.80;;
18933;SDS011;9599;53.706;10.384;2022-09-17T08:14:06;2.57;;;0.80;;
18933;SDS011;9599;53.706;10.384;2022-09-17T08:16:36;4.07;;;1.10;;
18933;SDS011;9599;53.706;10.384;2022-09-17T08:19:05;2.90;;;1.00;;
18933;SDS011;9599;53.706;10.384;2022-09-17T08:21:34;4.80;;;0.80;;
18933;SDS011;9599;53.706;10.384;2022-09-17T08:24:02;5.67;;;1.27;;
18933;SDS011;9599;53.706;10.384;2022-09-17T08:26:30;3.87;;;1.07;;
18933;SDS011;9599;53.706;10.384;2022-09-17T08:28:58;3.57;;;1.00;;
18933;SDS011;9599;53.706;10.384;2022-09-17T08:31:27;5.77;;;0.87;;
18933;SDS011;9599;53.706;10.384;2022-09-17T08:33:55;3.43;;;1.10;;
18933;SDS011;9599;53.706;10.384;2022-09-17T08:36:24;3.00;;;1.30;;
18933;SDS011;9599;53.706;10.384;2022-09-17T08:38:53;5.10;;;1.20;;
18933;SDS011;9599;53.706;10.384;2022-09-17T08:41:23;5.87;;;1.00;;
18933;SDS011;9599;53.706;10.384;2022-09-17T08:43:59;7.33;;;1.10;;
18933;SDS011;9599;53.706;10.384;2022-09-17T08:46:35;5.53;;;1.10;;
18933;SDS011;9599;53.706;10.384;2022-09-17T08:49:11;5.87;;;1.23;;
18933;SDS011;9599;53.706;10.384;2022-09-17T08:51:51;6.13;;;1.00;;
18933;SDS011;9599;53.706;10.384;2022-09-17T08:54:30;4.57;;;0.90;;
18933;SDS011;9599;53.706;10.384;2022-09-17T08:57:08;4.30;;;1.13;;
18933;SDS011;9599;53.706;10.384;2022-09-17T08:59:47;6.60;;;1.07;;
18933;SDS011;9599;53.706;10.384;2022-09-17T09:02:25;2.87;;;0.97;;
18933;SDS011;9599;53.706;10.384;2022-09-17T09:05:07;3.70;;;1.00;;
18933;SDS011;9599;53.706;10.384;2022-09-17T09:07:41;5.73;;;1.43;;
18933;SDS011;9599;53.706;10.384;2022-09-17T09:10:14;5.00;;;1.20;;
18933;SDS011;9599;53.706;10.384;2022-09-17T09:12:47;4.37;;;0.80;;
18933;SDS011;9599;53.706;10.384;2022-09-17T09:15:19;2.20;;;0.90;;
18933;SDS011;9599;53.706;10.384;2022-09-17T09:17:56;5.37;;;1.00;;
18933;SDS011;9599;53.706;10.384;2022-09-17T09:20:29;4.63;;;1.10;;
18933;SDS011;9599;53.706;10.384;2022-09-17T09:23:06;3.53;;;1.20;;
18933;SDS011;9599;53.706;10.384;2022-09-17T09:25:47;6.47;;;1.43;;
18933;SDS011;9599;53.706;10.384;2022-09-17T09:28:41;2.47;;;0.83;;
18933;SDS011;9599;53.706;10.384;2022-09-17T09:31:37;2.63;;;0.90;;
18933;SDS011;9599;53.706;10.384;2022-09-17T09:34:13;3.43;;;1.07;;
18933;SDS011;9599;53.706;10.384;2022-09-17T09:36:42;2.07;;;1.03;;
18933;SDS011;9599;53.706;10.384;2022-09-17T09:39:13;3.80;;;0.70;;
18933;SDS011;9599;53.706;10.384;2022-09-17T09:41:46;5.20;;;1.00;;
18933;SDS011;9599;53.706;10.384;2022-09-17T09:44:17;3.87;;;1.00;;
18933;SDS011;9599;53.706;10.384;2022-09-17T09:46:50;2.17;;;0.90;;
18933;SDS011;9599;53.706;10.384;2022-09-17T09:49:31;4.23;;;0.87;;
18933;SDS011;9599;53.706;10.384;2022-09-17T09:52:11;2.50;;;0.67;;
18933;SDS011;9599;53.706;10.384;2022-09-17T09:54:50;4.80;;;0.80;;
18933;SDS011;9599;53.706;10.384;2022-09-17T09:57:31;3.23;;;0.77;;
18933;SDS011;9599;53.706;10.384;2022-09-17T10:00:24;2.73;;;0.80;;
18933;SDS011;9599;53.706;10.384;2022-09-17T10:02:55;5.63;;;0.80;;
18933;SDS011;9599;53.706;10.384;2022-09-17T10:05:29;1.90;;;0.70;;
18933;SDS011;9599;53.706;10.384;2022-09-17T10:07:57;2.47;;;0.90;;
18933;SDS011;9599;53.706;10.384;2022-09-17T10:10:25;1.80;;;0.80;;
18933;SDS011;9599;53.706;10.384;2022-09-17T10:13:03;2.17;;;0.70;;
18933;SDS011;9599;53.706;10.384;2022-09-17T10:15:33;1.60;;;0.60;;
18933;SDS011;9599;53.706;10.384;2022-09-17T10:18:10;2.87;;;0.80;;
18933;SDS011;9599;53.706;10.384;2022-09-17T10:20:50;2.27;;;0.70;;
18933;SDS011;9599;53.706;10.384;2022-09-17T10:23:19;1.87;;;0.60;;
18933;SDS011;9599;53.706;10.384;2022-09-17T10:25:48;1.77;;;0.67;;
18933;SDS011;9599;53.706;10.384;2022-09-17T10:28:31;2.90;;;0.63;;
18933;SDS011;9599;53.706;10.384;2022-09-17T10:31:03;3.03;;;0.70;;
18933;SDS011;9599;53.706;10.384;2022-09-17T10:33:37;2.17;;;0.87;;
18933;SDS011;9599;53.706;10.384;2022-09-17T10:36:11;2.87;;;0.70;;
18933;SDS011;9599;53.706;10.384;2022-09-17T10:38:40;2.57;;;0.90;;
18933;SDS011;9599;53.706;10.384;2022-09-17T10:41:13;2.57;;;0.80;;
18933;SDS011;9599;53.706;10.384;2022-09-17T10:43:43;2.43;;;1.07;;
18933;SDS011;9599;53.706;10.384;2022-09-17T10:46:13;3.20;;;0.80;;
18933;SDS011;9599;53.706;10.384;2022-09-17T10:48:44;2.43;;;0.80;;
18933;SDS011;9599;53.706;10.384;2022-09-17T10:51:23;2.70;;;0.70;;
18933;SDS011;9599;53.706;10.384;2022-09-17T10:53:58;2.40;;;0.90;;
18933;SDS011;9599;53.706;10.384;2022-09-17T10:56:33;3.53;;;0.83;;
18933;SDS011;9599;53.706;10.384;2022-09-17T10:59:06;2.80;;;0.73;;
18933;SDS011;9599;53.706;10.384;2022-09-17T11:01:54;3.13;;;1.07;;
18933;SDS011;9599;53.706;10.384;2022-09-17T11:04:36;1.80;;;0.87;;
18933;SDS011;9599;53.706;10.384;2022-09-17T11:07:21;2.17;;;0.90;;
18933;SDS011;9599;53.706;10.384;2022-09-17T11:10:02;3.80;;;1.00;;
18933;SDS011;9599;53.706;10.384;2022-09-17T11:12:44;1.87;;;0.80;;
18933;SDS011;9599;53.706;10.384;2022-09-17T11:15:27;2.97;;;0.90;;
18933;SDS011;9599;53.706;10.384;2022-09-17T11:18:12;3.60;;;1.07;;
18933;SDS011;9599;53.706;10.384;2022-09-17T11:21:01;6.17;;;0.93;;
18933;SDS011;9599;53.706;10.384;2022-09-17T11:27:09;4.77;;;1.00;;
18933;SDS011;9599;53.706;10.384;2022-09-17T11:29:52;4.87;;;1.10;;
18933;SDS011;9599;53.706;10.384;2022-09-17T11:32:36;2.30;;;0.83;;
18933;SDS011;9599;53.706;10.384;2022-09-17T11:35:28;6.00;;;1.10;;
18933;SDS011;9599;53.706;10.384;2022-09-17T11:38:00;5.73;;;1.20;;
18933;SDS011;9599;53.706;10.384;2022-09-17T11:40:34;4.30;;;1.03;;
18933;SDS011;9599;53.706;10.384;2022-09-17T11:43:12;3.33;;;0.90;;
18933;SDS011;9599;53.706;10.384;2022-09-17T11:45:47;2.30;;;0.87;;
18933;SDS011;9599;53.706;10.384;2022-09-17T11:48:25;1.90;;;0.83;;
18933;SDS011;9599;53.706;10.384;2022-09-17T11:51:00;3.27;;;0.97;;
18933;SDS011;9599;53.706;10.384;2022-09-17T11:53:33;2.47;;;0.80;;
18933;SDS011;9599;53.706;10.384;2022-09-17T11:56:07;4.03;;;1.00;;
18933;SDS011;9599;53.706;10.384;2022-09-17T11:58:46;2.87;;;0.87;;
18933;SDS011;9599;53.706;10.384;2022-09-17T12:01:20;3.87;;;0.90;;
18933;SDS011;9599;53.706;10.384;2022-09-17T12:03:55;2.90;;;0.90;;
18933;SDS011;9599;53.706;10.384;2022-09-17T12:06:30;2.63;;;0.80;;
18933;SDS011;9599;53.706;10.384;2022-09-17T12:09:03;2.27;;;0.83;;
18933;SDS011;9599;53.706;10.384;2022-09-17T12:11:40;4.67;;;1.10;;
18933;SDS011;9599;53.706;10.384;2022-09-17T12:14:14;3.03;;;1.00;;
18933;SDS011;9599;53.706;10.384;2022-09-17T12:16:48;2.53;;;0.83;;
18933;SDS011;9599;53.706;10.384;2022-09-17T12:19:20;3.23;;;0.93;;
18933;SDS011;9599;53.706;10.384;2022-09-17T12:21:52;2.53;;;1.00;;
18933;SDS011;9599;53.706;10.384;2022-09-17T12:24:23;3.30;;;0.90;;
18933;SDS011;9599;53.706;10.384;2022-09-17T12:26:56;4.57;;;1.17;;
18933;SDS011;9599;53.706;10.384;2022-09-17T12:29:35;2.40;;;0.70;;
18933;SDS011;9599;53.706;10.384;2022-09-17T12:32:19;2.80;;;0.80;;
18933;SDS011;9599;53.706;10.384;2022-09-17T12:35:02;2.20;;;0.83;;
18933;SDS011;9599;53.706;10.384;2022-09-17T12:37:41;1.87;;;0.80;;
18933;SDS011;9599;53.706;10.384;2022-09-17T12:40:18;2.17;;;1.00;;
18933;SDS011;9599;53.706;10.384;2022-09-17T12:43:00;2.13;;;0.77;;
18933;SDS011;9599;53.706;10.384;2022-09-17T12:45:44;3.67;;;1.00;;
18933;SDS011;9599;53.706;10.384;2022-09-17T12:51:19;2.37;;;0.90;;
18933;SDS011;9599;53.706;10.384;2022-09-17T12:54:00;4.70;;;1.00;;
18933;SDS011;9599;53.706;10.384;2022-09-17T12:56:43;3.37;;;1.20;;
18933;SDS011;9599;53.706;10.384;2022-09-17T12:59:18;3.13;;;0.80;;
18933;SDS011;9599;53.706;10.384;2022-09-17T13:01:54;2.57;;;1.00;;
18933;SDS011;9599;53.706;10.384;2022-09-17T13:04:30;2.70;;;1.00;;
18933;SDS011;9599;53.706;10.384;2022-09-17T13:07:34;3.33;;;0.90;;
18933;SDS011;9599;53.706;10.384;2022-09-17T13:10:19;2.07;;;0.90;;
18933;SDS011;9599;53.706;10.384;2022-09-17T13:13:04;2.90;;;0.80;;
18933;SDS011;9599;53.706;10.384;2022-09-17T13:15:45;3.97;;;1.30;;
18933;SDS011;9599;53.706;10.384;2022-09-17T13:18:22;4.03;;;1.00;;
18933;SDS011;9599;53.706;10.384;2022-09-17T13:20:59;4.30;;;1.10;;
18933;SDS011;9599;53.706;10.384;2022-09-17T13:23:31;3.77;;;1.03;;
18933;SDS011;9599;53.706;10.384;2022-09-17T13:26:02;2.13;;;1.00;;
18933;SDS011;9599;53.706;10.384;2022-09-17T13:28:35;4.33;;;0.90;;
18933;SDS011;9599;53.706;10.384;2022-09-17T13:31:11;3.03;;;1.00;;
18933;SDS011;9599;53.706;10.384;2022-09-17T13:33:54;4.50;;;1.23;;
18933;SDS011;9599;53.706;10.384;2022-09-17T13:39:37;3.80;;;1.07;;
18933;SDS011;9599;53.706;10.384;2022-09-17T13:42:09;3.63;;;1.10;;
18933;SDS011;9599;53.706;10.384;2022-09-17T13:44:42;4.30;;;1.00;;
18933;SDS011;9599;53.706;10.384;2022-09-17T13:47:14;2.77;;;1.00;;
18933;SDS011;9599;53.706;10.384;2022-09-17T13:49:48;3.27;;;1.10;;
18933;SDS011;9599;53.706;10.384;2022-09-17T13:52:38;4.03;;;1.40;;
18933;SDS011;9599;53.706;10.384;2022-09-17T13:57:57;0.93;;;0.77;;
18933;SDS011;9599;53.706;10.384;2022-09-17T14:09:44;3.37;;;1.30;;
18933;SDS011;9599;53.706;10.384;2022-09-17T14:15:34;1.43;;;0.77;;
18933;SDS011;9599;53.706;10.384;2022-09-17T14:21:26;2.70;;;1.00;;
18933;SDS011;9599;53.706;10.384;2022-09-17T14:23:59;2.63;;;1.10;;
18933;SDS011;9599;53.706;10.384;2022-09-17T14:26:39;2.33;;;0.80;;
18933;SDS011;9599;53.706;10.384;2022-09-17T14:29:19;2.40;;;1.00;;
18933;SDS011;9599;53.706;10.384;2022-09-17T14:32:06;2.33;;;0.90;;
18933;SDS011;9599;53.706;10.384;2022-09-17T14:34:40;2.10;;;0.80;;
18933;SDS011;9599;53.706;10.384;2022-09-17T14:37:08;1.77;;;0.67;;
18933;SDS011;9599;53.706;10.384;2022-09-17T14:39:42;1.63;;;0.67;;
18933;SDS011;9599;53.706;10.384;2022-09-17T14:42:12;2.50;;;0.70;;
18933;SDS011;9599;53.706;10.384;2022-09-17T14:44:46;2.90;;;0.87;;
18933;SDS011;9599;53.706;10.384;2022-09-17T14:47:20;1.37;;;0.90;;
18933;SDS011;9599;53.706;10.384;2022-09-17T14:49:48;2.03;;;0.93;;
18933;SDS011;9599;53.706;10.384;2022-09-17T14:52:24;3.83;;;1.40;;
18933;SDS011;9599;53.706;10.384;2022-09-17T14:55:09;1.73;;;1.10;;
18933;SDS011;9599;53.706;10.384;2022-09-17T14:57:43;1.90;;;1.00;;
18933;SDS011;9599;53.706;10.384;2022-09-17T15:00:16;4.03;;;1.03;;
18933;SDS011;9599;53.706;10.384;2022-09-17T15:02:48;3.67;;;1.00;;
18933;SDS011;9599;53.706;10.384;2022-09-17T15:05:23;4.97;;;1.10;;
18933;SDS011;9599;53.706;10.384;2022-09-17T15:08:03;2.50;;;1.10;;
18933;SDS011;9599;53.706;10.384;2022-09-17T15:10:35;2.17;;;1.23;;
18933;SDS011;9599;53.706;10.384;2022-09-17T15:13:09;2.70;;;1.00;;
18933;SDS011;9599;53.706;10.384;2022-09-17T15:15:39;3.00;;;0.90;;
18933;SDS011;9599;53.706;10.384;2022-09-17T15:18:22;2.03;;;0.80;;
18933;SDS011;9599;53.706;10.384;2022-09-17T15:20:58;1.47;;;0.80;;
18933;SDS011;9599;53.706;10.384;2022-09-17T15:23:29;1.90;;;0.97;;
18933;SDS011;9599;53.706;10.384;2022-09-17T15:26:01;1.23;;;0.70;;
18933;SDS011;9599;53.706;10.384;2022-09-17T15:28:30;1.87;;;0.90;;
18933;SDS011;9599;53.706;10.384;2022-09-17T15:31:14;1.00;;;0.60;;
18933;SDS011;9599;53.706;10.384;2022-09-17T15:33:44;1.73;;;0.70;;
18933;SDS011;9599;53.706;10.384;2022-09-17T15:36:16;2.40;;;0.80;;
18933;SDS011;9599;53.706;10.384;2022-09-17T15:38:46;2.40;;;0.70;;
18933;SDS011;9599;53.706;10.384;2022-09-17T15:41:22;3.13;;;1.00;;
18933;SDS011;9599;53.706;10.384;2022-09-17T15:44:03;1.00;;;0.83;;